• Join FlightAware (Why Join?)
  • Login
  • US Flag 
10:28AM EDT


 

Airport Tracker/Info


-or-


 

Live Flight TrackerFlight Track Log ✈ N500HG ✈ 05-May-2013 ✈ KMRC - KTOL

Flight Track Log - Related Links

Times and Time Zones

All times are in EDT time to prevent confusion due to time zone crossing. See the N500HG flight status page for this flight to view local times or setup timezone preferences in your user account.

Time Position Orientation Groundspeed Altitude Reporting Facility
EDT Latitude Longitude Course Direction KTS MPH feet Rate Location/Type
03:24PM 35.6594 -87.1094 26° Northeast 280 322 3,900  Level Memphis Center
03:25PM 35.7147 -87.0767 26° Northeast 241 277 4,400 960 Climbing Memphis Center
03:26PM 35.7600 -87.0492 26° Northeast 193 222 5,900 1,260 Climbing Memphis Center
03:27PM 35.8031 -87.0219 27° Northeast 170 196 7,000 1,440 Climbing Memphis Center
03:28PM 35.8508 -87.0122 North 165 190 8,800 1,560 Climbing Memphis Center
03:29PM 35.8939 -86.9925 20° North 172 198 10,200 1,440 Climbing Memphis Center
03:31PM 35.9928 -86.9475 20° North 185 213 13,200 1,560 Climbing Memphis Center
03:32PM 36.0422 -86.9222 22° Northeast 195 224 15,000 1,620 Climbing Memphis Center
03:33PM 36.0917 -86.9022 18° North 189 217 16,500 1,500 Climbing Memphis Center
03:34PM 36.1411 -86.8847 16° North 184 212 18,000 1,440 Climbing Memphis Center
03:35PM 36.1947 -86.8644 17° North 184 212 19,400 1,260 Climbing Memphis Center
03:36PM 36.2506 -86.8467 14° North 189 217 20,600 1,140 Climbing Memphis Center
03:37PM 36.3022 -86.8317 13° North 199 229 21,700 1,080 Climbing Memphis Center
03:38PM 36.3581 -86.8136 15° North 208 239 22,800 960 Climbing Memphis Center
03:39PM 36.4181 -86.8008 10° North 213 245 23,700 900 Climbing Memphis Center
03:40PM 36.4694 -86.7753 22° Northeast 206 237 24,700 600 Climbing Memphis Center
03:41PM 36.5228 -86.7469 23° Northeast 201 231 25,000 120 Climbing Memphis Center
03:42PM 36.5867 -86.7131 23° Northeast 233 268 25,000  Level Memphis Center
03:43PM 36.6583 -86.6736 24° Northeast 246 283 25,000  Level Memphis Center
03:44PM 36.7197 -86.6397 24° Northeast 253 291 25,000  Level Memphis Center
03:45PM 36.7856 -86.6058 22° Northeast 247 284 25,000  Level Memphis Center
03:46PM 36.8450 -86.5744 23° Northeast 240 276 25,000  Level Memphis Center
03:47PM 36.9025 -86.5433 23° Northeast 234 269 25,000  Level Memphis Center
03:48PM 36.9639 -86.5092 24° Northeast 234 269 25,000  Level Memphis Center
03:49PM 37.0233 -86.4750 25° Northeast 234 269 25,000  Level Memphis Center
03:50PM 37.0847 -86.4436 22° Northeast 234 269 25,000  Level Memphis Center
03:51PM 37.1419 -86.4119 24° Northeast 229 264 25,000  Level Memphis Center
03:53PM 37.2736 -86.3392 24° Northeast 233 268 25,000  Level Indianapolis Center
03:55PM 37.3347 -86.3061 23° Northeast 235 270 25,000  Level Indianapolis Center
03:56PM 37.3950 -86.2719 24° Northeast 235 270 25,000  Level Indianapolis Center
03:57PM 37.4553 -86.2389 24° Northeast 235 270 25,000  Level Indianapolis Center
03:58PM 37.5142 -86.2019 26° Northeast 233 268 25,000  Level Indianapolis Center
03:59PM 37.5806 -86.1622 25° Northeast 230 265 25,000  Level Indianapolis Center
04:01PM 37.6953 -86.0931 26° Northeast 226 260 25,000  Level Indianapolis Center
04:02PM 37.7531 -86.0581 26° Northeast 227 261 25,000 180 Level Indianapolis Center
04:03PM 37.8086 -86.0228 27° Northeast 224 258 25,400 720 Climbing Indianapolis Center
04:04PM 37.8586 -85.9919 26° Northeast 201 231 26,600 720 Climbing Indianapolis Center
04:05PM 37.9028 -85.9664 25° Northeast 178 205 27,000 180 Climbing Indianapolis Center
04:06PM 37.9636 -85.9267 27° Northeast 202 232 27,000  Level Indianapolis Center
04:07PM 38.0169 -85.8944 25° Northeast 211 243 27,000  Level Indianapolis Center
04:08PM 38.0700 -85.8614 26° Northeast 211 243 27,000  Level Indianapolis Center
04:09PM 38.1211 -85.8300 26° Northeast 205 236 27,000  Level Indianapolis Center
04:10PM 38.1717 -85.7978 27° Northeast 203 234 27,000  Level Indianapolis Center
04:11PM 38.2225 -85.7675 25° Northeast 202 232 27,000  Level Indianapolis Center
04:12PM 38.2700 -85.7364 27° Northeast 194 223 27,000  Level Indianapolis Center
04:13PM 38.3267 -85.7017 26° Northeast 187 215 27,000  Level Indianapolis Center
04:14PM 38.3714 -85.6728 27° Northeast 182 209 27,000  Level Indianapolis Center
04:15PM 38.4167 -85.6444 26° Northeast 180 207 27,000  Level Indianapolis Center
04:16PM 38.4622 -85.6156 26° Northeast 182 209 27,000  Level Indianapolis Center
04:17PM 38.5086 -85.5861 26° Northeast 185 213 27,000  Level Indianapolis Center
04:18PM 38.5547 -85.5567 27° Northeast 185 213 27,000  Level Indianapolis Center
04:19PM 38.6017 -85.5281 25° Northeast 186 214 27,000  Level Indianapolis Center
04:20PM 38.6586 -85.4925 26° Northeast 188 216 27,000  Level Indianapolis Center
04:21PM 38.7044 -85.4633 26° Northeast 187 215 27,000  Level Indianapolis Center
04:22PM 38.7511 -85.4336 26° Northeast 187 215 27,000  Level Indianapolis Center
04:23PM 38.7972 -85.4044 26° Northeast 185 213 27,000  Level Indianapolis Center
04:24PM 38.8431 -85.3742 27° Northeast 186 214 27,000  Level Indianapolis Center
04:26PM 38.8906 -85.3456 25° Northeast 187 215 27,000  Level Indianapolis Center
04:27PM 38.9450 -85.3103 27° Northeast 185 213 27,000  Level Indianapolis Center
04:28PM 38.9911 -85.2806 27° Northeast 186 214 27,000 -480 Level Indianapolis Center
04:29PM 39.0417 -85.2461 28° Northeast 202 232 26,100 -960 Descending Indianapolis Center
04:30PM 39.1036 -85.2067 26° Northeast 241 277 25,100 -540 Descending Indianapolis Center
04:31PM 39.1650 -85.1669 27° Northeast 248 285 25,000 -60 Descending Indianapolis Center
04:32PM 39.2319 -85.1250 26° Northeast 227 261 25,000  Level Indianapolis Center
04:33PM 39.2850 -85.0914 26° Northeast 217 250 25,000  Level Indianapolis Center
04:34PM 39.3358 -85.0572 27° Northeast 208 239 25,000  Level Indianapolis Center
04:35PM 39.3867 -85.0247 26° Northeast 205 236 25,000  Level Indianapolis Center
04:36PM 39.4369 -84.9917 27° Northeast 204 235 25,000  Level Indianapolis Center
04:37PM 39.4867 -84.9589 27° Northeast 204 235 25,000  Level Indianapolis Center
04:38PM 39.5472 -84.9208 26° Northeast 201 231 25,000  Level Indianapolis Center
04:39PM 39.5972 -84.8886 26° Northeast 202 232 25,000  Level Indianapolis Center
04:40PM 39.6436 -84.8581 27° Northeast 199 229 25,000  Level Indianapolis Center
04:41PM 39.7022 -84.8203 26° Northeast 200 230 25,000  Level Indianapolis Center
04:42PM 39.7517 -84.7878 27° Northeast 199 229 25,000  Level Indianapolis Center
04:43PM 39.8017 -84.7550 27° Northeast 198 228 25,000  Level Indianapolis Center
04:44PM 39.8519 -84.7214 27° Northeast 199 229 25,000  Level Indianapolis Center
04:46PM 39.9533 -84.6544 27° Northeast 203 234 25,000  Level Indianapolis Center
04:47PM 40.0033 -84.6208 27° Northeast 201 231 25,000  Level Indianapolis Center
04:48PM 40.0539 -84.5875 27° Northeast 201 231 25,000  Level Indianapolis Center
04:49PM 40.1133 -84.5483 27° Northeast 202 232 25,000  Level Indianapolis Center
04:50PM 40.1639 -84.5144 27° Northeast 202 232 25,000 -60 Level Indianapolis Center
04:51PM 40.2147 -84.4803 27° Northeast 202 232 24,900 -300 Descending Indianapolis Center
04:52PM 40.2664 -84.4453 27° Northeast 206 237 24,400 -540 Descending Indianapolis Center
04:53PM 40.3158 -84.4125 27° Northeast 199 229 23,900 -360 Descending Indianapolis Center
04:54PM 40.3617 -84.3819 27° Northeast 186 214 23,700 -600 Descending Indianapolis Center
04:55PM 40.4097 -84.3492 27° Northeast 191 220 22,700 -1,200 Descending Indianapolis Center
04:56PM 40.4650 -84.3111 28° Northeast 219 252 21,300 -1,320 Descending Indianapolis Center
04:58PM 40.5256 -84.2717 26° Northeast 236 272 20,000 -1,380 Descending Indianapolis Center
04:59PM 40.5947 -84.2244 27° Northeast 239 275 18,500 -1,320 Descending Indianapolis Center
05:00PM 40.6544 -84.1842 27° Northeast 239 275 17,300 -780 Descending Indianapolis Center
05:01PM 40.7106 -84.1475 26° Northeast 225 259 17,000 -180 Descending Indianapolis Center
05:02PM 40.7575 -84.1144 28° Northeast 194 223 17,000 -60 Level Indianapolis Center
05:03PM 40.8069 -84.0822 26° Northeast 195 224 16,900 -300 Descending Indianapolis Center
05:04PM 40.8583 -84.0458 28° Northeast 205 236 16,500 -780 Descending Indianapolis Center
05:05PM 40.9253 -84.0303 10° North 241 277 15,400 -1,140 Descending Indianapolis Center
05:06PM 40.9953 -84.0172 North 250 288 14,200 -1,260 Descending Indianapolis Center
05:07PM 41.0719 -84.0014 North 253 291 12,900 -1,320 Descending Indianapolis Center
05:08PM 41.1253 -83.9878 11° North 255 293 12,000 -1,260 Descending Cleveland Center
05:09PM 41.1908 -83.9608 17° North 255 293 10,800 -1,380 Descending Cleveland Center
05:10PM 41.2583 -83.9367 15° North 250 288 9,300 -2,040 Descending Cleveland Center
05:11PM 41.3236 -83.9094 17° North 242 278 6,800 -2,520 Descending Cleveland Center
05:12PM 41.3761 -83.8983 North 232 267 4,300 2,100 Descending Cleveland Center
05:13PM 41.4431 -83.8964 North 216 249 11,000 3,300 Climbing Cleveland Center
05:14PM 41.4972 -83.8964 360° North 216 249 11,000  Level Cleveland Center
05:16PM 41.5833 -83.8000 17° North  Level FlightAware Approximate
05:23PM 41.5868 -83.8078 17° North  Level Estimated
05:24PM 41.5833 -83.8000 17° North  Level FlightAware Approximate
05:25PM 41.5868 -83.8078 17° North  Level Estimated